createdAt,value
2018-07-25T00:02:11.071Z,16.60
2018-07-25T00:04:39.349Z,16.60
2018-07-25T00:07:07.647Z,16.60
2018-07-25T00:09:35.938Z,16.60
2018-07-25T00:12:04.240Z,16.60
2018-07-25T00:14:32.517Z,16.60
2018-07-25T00:17:00.823Z,16.60
2018-07-25T00:19:29.085Z,16.60
2018-07-25T00:21:57.398Z,16.60
2018-07-25T00:24:25.949Z,16.60
2018-07-25T00:26:54.285Z,16.60
2018-07-25T00:29:22.594Z,16.60
2018-07-25T00:31:50.881Z,16.70
2018-07-25T00:34:19.377Z,16.70
2018-07-25T00:36:47.670Z,16.70
2018-07-25T00:39:16.082Z,16.60
2018-07-25T00:41:44.378Z,16.60
2018-07-25T00:44:12.669Z,16.40
2018-07-25T00:46:43.949Z,16.40
2018-07-25T00:49:12.235Z,16.30
2018-07-25T00:51:40.571Z,16.30
2018-07-25T00:54:08.945Z,16.30
2018-07-25T00:56:37.252Z,16.30
2018-07-25T00:59:05.525Z,16.30
2018-07-25T01:01:33.842Z,16.20
2018-07-25T01:04:02.177Z,16.20
2018-07-25T01:06:30.479Z,16.20
2018-07-25T01:08:58.745Z,16.10
2018-07-25T01:11:27.239Z,16.10
2018-07-25T01:13:55.540Z,16.00
2018-07-25T01:16:23.845Z,15.90
2018-07-25T01:18:52.148Z,15.90
2018-07-25T01:21:20.657Z,15.80
2018-07-25T01:23:48.968Z,15.80
2018-07-25T01:26:17.225Z,15.80
2018-07-25T01:28:45.518Z,15.90
2018-07-25T01:31:13.867Z,15.90
2018-07-25T01:33:42.182Z,15.80
2018-07-25T01:36:10.479Z,15.80
2018-07-25T01:38:38.785Z,15.80
2018-07-25T01:41:07.085Z,15.90
2018-07-25T01:43:35.374Z,15.90
2018-07-25T01:46:03.663Z,15.80
2018-07-25T01:48:31.954Z,15.80
2018-07-25T01:51:00.285Z,15.80
2018-07-25T01:53:28.688Z,15.70
2018-07-25T01:55:57.072Z,15.70
2018-07-25T01:58:25.375Z,15.70
2018-07-25T02:00:53.676Z,15.70
2018-07-25T02:03:21.956Z,15.60
2018-07-25T02:05:50.338Z,15.60
2018-07-25T02:08:18.690Z,15.60
2018-07-25T02:10:47.081Z,15.40
2018-07-25T02:13:16.637Z,15.40
2018-07-25T02:15:45.424Z,15.40
2018-07-25T02:18:13.840Z,15.40
2018-07-25T02:20:42.154Z,15.40
2018-07-25T02:23:10.429Z,15.30
2018-07-25T02:25:38.742Z,15.20
2018-07-25T02:28:07.123Z,15.20
2018-07-25T02:30:35.482Z,15.30
2018-07-25T02:33:03.833Z,15.20
2018-07-25T02:35:32.112Z,15.10
2018-07-25T02:38:00.451Z,15.20
2018-07-25T02:40:28.853Z,15.20
2018-07-25T02:42:57.148Z,15.20
2018-07-25T02:45:25.453Z,15.20
2018-07-25T02:47:53.774Z,15.10
2018-07-25T02:50:22.093Z,15.00
2018-07-25T02:52:50.402Z,15.00
2018-07-25T02:55:18.764Z,14.90
2018-07-25T02:57:47.042Z,14.90
2018-07-25T03:00:15.305Z,14.80
2018-07-25T03:02:43.615Z,14.80
2018-07-25T03:05:11.898Z,14.80
2018-07-25T03:07:40.172Z,14.80
2018-07-25T03:10:08.482Z,14.80
2018-07-25T03:12:36.973Z,14.80
2018-07-25T03:15:05.720Z,14.70
2018-07-25T03:17:34.261Z,14.70
2018-07-25T03:20:02.723Z,14.60
2018-07-25T03:22:31.066Z,14.60
2018-07-25T03:24:59.368Z,14.60
2018-07-25T03:27:27.696Z,14.70
2018-07-25T03:29:55.967Z,14.70
2018-07-25T03:32:24.278Z,14.70
2018-07-25T03:34:52.535Z,14.70
2018-07-25T03:37:20.891Z,14.80
2018-07-25T03:39:49.120Z,14.70
2018-07-25T03:42:17.425Z,14.70
2018-07-25T03:44:45.709Z,14.70
2018-07-25T03:47:13.991Z,14.70
2018-07-25T03:49:42.298Z,14.80
2018-07-25T03:52:10.645Z,14.80
2018-07-25T03:54:38.931Z,14.80
2018-07-25T03:57:07.217Z,14.80
2018-07-25T03:59:35.508Z,14.90
2018-07-25T04:02:03.861Z,14.90
2018-07-25T04:04:32.227Z,14.90
2018-07-25T04:07:00.477Z,14.90
2018-07-25T04:09:28.791Z,14.90
2018-07-25T04:11:57.113Z,15.00
2018-07-25T04:14:25.408Z,15.00
2018-07-25T04:16:53.698Z,15.00
2018-07-25T04:19:21.995Z,15.00
2018-07-25T04:21:50.280Z,15.00
2018-07-25T04:24:18.646Z,15.10
2018-07-25T04:26:47.737Z,15.10
2018-07-25T04:29:16.027Z,15.10
2018-07-25T04:31:44.355Z,15.20
2018-07-25T04:34:12.626Z,15.20
2018-07-25T04:36:40.913Z,15.30
2018-07-25T04:39:11.064Z,15.40
2018-07-25T04:41:39.939Z,15.50
2018-07-25T04:44:08.431Z,15.70
2018-07-25T04:46:36.778Z,15.80
2018-07-25T04:49:05.160Z,15.90
2018-07-25T04:51:33.441Z,16.00
2018-07-25T04:54:01.748Z,16.10
2018-07-25T04:56:30.010Z,16.20
2018-07-25T04:58:58.301Z,16.30
2018-07-25T05:01:26.961Z,16.50
2018-07-25T05:03:55.247Z,16.70
2018-07-25T05:06:23.542Z,16.80
2018-07-25T05:08:51.838Z,16.90
2018-07-25T05:11:20.277Z,17.10
2018-07-25T05:13:48.597Z,17.30
2018-07-25T05:16:23.765Z,17.40
2018-07-25T05:18:52.071Z,17.60
2018-07-25T05:21:20.508Z,17.80
2018-07-25T05:23:48.791Z,18.10
2018-07-25T05:28:45.102Z,18.60
2018-07-25T05:31:13.434Z,19.00
2018-07-25T05:33:41.825Z,19.30
2018-07-25T05:36:10.180Z,19.60
2018-07-25T05:38:38.465Z,19.90
2018-07-25T05:41:06.739Z,20.30
2018-07-25T05:43:35.051Z,20.50
2018-07-25T05:46:03.350Z,20.80
2018-07-25T05:48:32.980Z,21.00
2018-07-25T05:51:01.249Z,21.30
2018-07-25T05:53:29.626Z,21.60
2018-07-25T05:58:26.226Z,22.30
2018-07-25T06:00:54.624Z,22.60
2018-07-25T06:03:22.940Z,22.70
2018-07-25T06:05:51.274Z,22.90
2018-07-25T06:08:19.496Z,22.90
2018-07-25T06:10:47.872Z,23.30
2018-07-25T06:13:16.228Z,23.70
2018-07-25T06:15:44.570Z,24.10
2018-07-25T06:18:12.844Z,24.30
2018-07-25T06:20:41.285Z,24.60
2018-07-25T06:23:09.490Z,24.80
2018-07-25T06:25:37.814Z,25.10
2018-07-25T06:28:06.111Z,25.90
2018-07-25T06:30:34.412Z,26.50
2018-07-25T06:33:02.765Z,26.90
2018-07-25T06:35:31.053Z,27.50
2018-07-25T06:37:59.411Z,28.10
2018-07-25T06:40:27.667Z,29.60
2018-07-25T06:42:55.950Z,31.00
2018-07-25T06:45:24.350Z,32.20
2018-07-25T06:47:52.639Z,32.80
2018-07-25T06:50:20.932Z,33.70
2018-07-25T06:52:49.243Z,34.70
2018-07-25T06:55:17.542Z,35.50
2018-07-25T06:57:45.872Z,35.70
2018-07-25T07:00:14.177Z,36.00
2018-07-25T07:02:42.441Z,36.20
2018-07-25T07:05:10.737Z,36.80
2018-07-25T07:07:39.045Z,36.90
2018-07-25T07:10:07.327Z,36.90
2018-07-25T07:12:35.627Z,37.60
2018-07-25T07:15:04.486Z,38.10
2018-07-25T07:17:32.866Z,38.50
2018-07-25T07:20:01.112Z,38.10
2018-07-25T07:22:29.441Z,38.30
2018-07-25T07:24:57.701Z,38.50
2018-07-25T07:27:26.026Z,38.70
2018-07-25T07:29:54.349Z,39.00
2018-07-25T07:32:22.650Z,38.80
2018-07-25T07:34:50.951Z,38.60
2018-07-25T07:37:19.293Z,37.80
2018-07-25T07:39:47.649Z,38.00
2018-07-25T07:42:15.991Z,37.60
2018-07-25T07:44:44.273Z,37.70
2018-07-25T07:47:12.600Z,38.20
2018-07-25T07:49:40.888Z,38.10
2018-07-25T07:52:09.228Z,39.00
2018-07-25T07:54:37.578Z,39.40
2018-07-25T07:57:05.936Z,39.40
2018-07-25T08:02:02.361Z,39.70
2018-07-25T08:04:30.635Z,39.70
2018-07-25T08:06:58.926Z,38.30
2018-07-25T08:09:27.235Z,37.60
2018-07-25T08:11:55.528Z,37.80
2018-07-25T08:14:23.839Z,37.60
2018-07-25T08:16:52.123Z,38.10
2018-07-25T08:19:20.419Z,38.10
2018-07-25T08:21:48.761Z,38.60
2018-07-25T08:24:17.117Z,38.50
2018-07-25T08:26:45.422Z,36.70
2018-07-25T08:29:13.745Z,36.50
2018-07-25T08:31:42.077Z,36.40
2018-07-25T08:34:10.396Z,37.00
2018-07-25T08:36:38.727Z,37.60
2018-07-25T08:39:08.491Z,36.60
2018-07-25T08:41:36.857Z,35.90
2018-07-25T08:44:05.981Z,35.80
2018-07-25T08:46:34.273Z,36.20
2018-07-25T08:49:02.588Z,36.80
2018-07-25T08:51:30.913Z,37.50
2018-07-25T08:53:59.194Z,37.60
2018-07-25T08:56:27.515Z,37.50
2018-07-25T08:58:55.805Z,37.30
2018-07-25T09:01:24.100Z,36.50
2018-07-25T09:06:20.515Z,34.90
2018-07-25T09:08:48.773Z,35.50
2018-07-25T09:11:21.284Z,36.00
2018-07-25T09:13:49.561Z,36.00
2018-07-25T09:16:17.889Z,35.50
2018-07-25T09:18:46.183Z,34.90
2018-07-25T09:21:14.496Z,33.50
2018-07-25T09:23:42.804Z,31.80
2018-07-25T09:26:11.114Z,31.00
2018-07-25T09:28:39.418Z,30.30
2018-07-25T09:31:07.791Z,29.90
2018-07-25T09:33:36.195Z,29.60
2018-07-25T09:36:04.484Z,29.20
2018-07-25T09:38:32.769Z,29.00
2018-07-25T09:41:01.124Z,28.80
2018-07-25T09:43:29.365Z,28.70
2018-07-25T09:45:57.683Z,28.60
2018-07-25T09:48:26.108Z,28.60
2018-07-25T09:50:54.416Z,28.60
2018-07-25T09:53:22.722Z,28.70
2018-07-25T09:55:50.986Z,28.80
2018-07-25T09:58:20.460Z,28.50
2018-07-25T10:00:49.642Z,28.40
2018-07-25T10:03:18.784Z,28.00
2018-07-25T10:05:47.212Z,27.70
2018-07-25T10:08:16.106Z,27.70
2018-07-25T10:10:44.795Z,27.80
2018-07-25T10:13:13.126Z,27.80
2018-07-25T10:15:41.421Z,27.90
2018-07-25T10:18:09.702Z,27.80
2018-07-25T10:20:38.040Z,27.70
2018-07-25T10:23:06.370Z,27.60
2018-07-25T10:25:34.654Z,27.60
2018-07-25T10:28:02.969Z,27.50
2018-07-25T10:30:31.311Z,27.50
2018-07-25T10:32:59.637Z,27.60
2018-07-25T10:35:27.889Z,27.70
2018-07-25T10:37:56.193Z,27.60
2018-07-25T10:45:20.600Z,28.00
2018-07-25T10:47:48.876Z,28.10
2018-07-25T10:52:45.199Z,28.20
2018-07-25T10:55:13.504Z,27.70
2018-07-25T10:57:41.898Z,27.50
2018-07-25T11:00:10.209Z,27.30
2018-07-25T11:02:41.178Z,27.40
2018-07-25T11:05:09.515Z,27.70
2018-07-25T11:07:37.781Z,27.80
2018-07-25T11:10:06.615Z,27.90
2018-07-25T11:12:34.919Z,27.90
2018-07-25T11:15:03.397Z,27.80
2018-07-25T11:17:31.807Z,27.80
2018-07-25T11:20:00.091Z,27.90
2018-07-25T11:22:28.475Z,28.20
2018-07-25T11:24:56.789Z,28.40
2018-07-25T11:27:25.081Z,28.40
2018-07-25T11:29:53.494Z,28.20
2018-07-25T11:32:21.772Z,28.10
2018-07-25T11:34:50.095Z,28.20
2018-07-25T11:37:18.371Z,28.50
2018-07-25T11:39:46.672Z,28.60
2018-07-25T11:42:14.967Z,28.60
2018-07-25T11:44:43.279Z,28.70
2018-07-25T11:47:11.556Z,28.60
2018-07-25T11:49:39.864Z,28.60
2018-07-25T11:52:08.207Z,28.40
2018-07-25T11:54:36.471Z,28.20
2018-07-25T11:57:04.826Z,28.40
2018-07-25T11:59:33.109Z,28.70
2018-07-25T12:02:01.366Z,28.70
2018-07-25T12:04:29.681Z,28.60
2018-07-25T12:06:58.051Z,28.60
2018-07-25T12:09:26.368Z,28.60
2018-07-25T12:11:54.773Z,28.60
2018-07-25T12:14:23.060Z,28.70
2018-07-25T12:16:51.379Z,28.70
2018-07-25T12:19:19.654Z,28.60
2018-07-25T12:21:47.971Z,28.50
2018-07-25T12:24:16.431Z,28.60
2018-07-25T12:26:44.787Z,28.40
2018-07-25T12:29:13.051Z,28.30
2018-07-25T12:31:41.359Z,28.30
2018-07-25T12:36:37.708Z,28.10
2018-07-25T12:39:08.391Z,27.90
2018-07-25T12:41:37.155Z,27.90
2018-07-25T12:44:05.948Z,28.00
2018-07-25T12:46:34.238Z,28.40
2018-07-25T12:49:02.769Z,28.40
2018-07-25T12:51:31.078Z,28.40
2018-07-25T12:53:59.479Z,28.40
2018-07-25T12:56:27.687Z,28.30
2018-07-25T12:58:55.955Z,28.50
2018-07-25T13:01:24.268Z,28.60
2018-07-25T13:03:52.647Z,28.60
2018-07-25T13:06:20.942Z,28.50
2018-07-25T13:08:49.227Z,28.50
2018-07-25T13:11:17.552Z,28.20
2018-07-25T13:13:45.838Z,28.00
2018-07-25T13:16:14.115Z,28.00
2018-07-25T13:18:42.453Z,28.20
2018-07-25T13:21:10.894Z,28.30
2018-07-25T13:23:39.176Z,28.30
2018-07-25T13:26:07.493Z,28.50
2018-07-25T13:28:35.824Z,28.30
2018-07-25T13:31:04.134Z,28.20
2018-07-25T13:33:32.511Z,28.20
2018-07-25T13:36:00.845Z,28.30
2018-07-25T13:38:29.114Z,28.40
2018-07-25T13:40:57.438Z,28.50
2018-07-25T13:43:25.789Z,28.60
2018-07-25T13:45:54.168Z,28.60
2018-07-25T13:48:22.406Z,28.70
2018-07-25T13:50:50.699Z,28.70
2018-07-25T13:53:18.996Z,28.70
2018-07-25T13:55:47.346Z,28.70
2018-07-25T13:58:15.605Z,28.90
2018-07-25T14:00:43.906Z,28.80
2018-07-25T14:03:12.248Z,28.60
2018-07-25T14:05:40.597Z,28.50
2018-07-25T14:08:08.904Z,28.50
2018-07-25T14:10:37.274Z,28.70
2018-07-25T14:13:05.611Z,28.70
2018-07-25T14:15:33.922Z,28.80
2018-07-25T14:18:02.259Z,28.80
2018-07-25T14:20:30.553Z,28.70
2018-07-25T14:22:58.882Z,28.80
2018-07-25T14:25:27.257Z,28.70
2018-07-25T14:27:55.621Z,28.80
2018-07-25T14:30:24.360Z,28.90
2018-07-25T14:32:52.560Z,28.80
2018-07-25T14:35:20.915Z,28.80
2018-07-25T14:37:49.275Z,28.70
2018-07-25T14:40:17.682Z,28.60
2018-07-25T14:42:46.005Z,28.60
2018-07-25T14:45:14.327Z,28.50
2018-07-25T14:47:42.696Z,28.40
2018-07-25T14:50:11.061Z,28.20
2018-07-25T14:52:39.367Z,28.20
2018-07-25T14:55:07.689Z,28.20
2018-07-25T14:57:36.020Z,28.20
2018-07-25T15:00:04.876Z,28.10
2018-07-25T15:02:33.239Z,28.10
2018-07-25T15:05:01.636Z,28.30
2018-07-25T15:07:29.943Z,28.30
2018-07-25T15:09:58.366Z,28.20
2018-07-25T15:12:32.147Z,28.10
2018-07-25T15:15:00.470Z,28.20
2018-07-25T15:17:29.035Z,28.30
2018-07-25T15:19:57.404Z,28.40
2018-07-25T15:22:25.754Z,28.50
2018-07-25T15:24:54.105Z,28.50
2018-07-25T15:27:22.490Z,28.40
2018-07-25T15:29:50.911Z,28.40
2018-07-25T15:32:19.310Z,28.50
2018-07-25T15:34:47.631Z,28.50
2018-07-25T15:37:16.057Z,28.60
2018-07-25T15:39:44.682Z,28.50
2018-07-25T15:42:13.084Z,28.50
2018-07-25T15:44:41.399Z,28.30
2018-07-25T15:47:09.736Z,28.10
2018-07-25T15:49:38.025Z,28.00
2018-07-25T15:52:06.347Z,27.90
2018-07-25T15:54:34.789Z,27.90
2018-07-25T15:57:03.159Z,28.00
2018-07-25T15:59:31.500Z,28.10
2018-07-25T16:01:59.887Z,28.20
2018-07-25T16:04:28.752Z,28.20
2018-07-25T16:06:57.137Z,28.10
2018-07-25T16:09:25.573Z,28.10
2018-07-25T16:11:53.933Z,28.10
2018-07-25T16:14:22.301Z,28.10
2018-07-25T16:16:50.679Z,28.10
2018-07-25T16:19:19.044Z,28.20
2018-07-25T16:21:47.359Z,28.20
2018-07-25T16:24:15.843Z,28.10
2018-07-25T16:26:44.134Z,28.10
2018-07-25T16:29:12.555Z,28.20
2018-07-25T16:31:40.892Z,28.20
2018-07-25T16:34:09.257Z,28.20
2018-07-25T16:36:37.612Z,28.10
2018-07-25T16:39:08.979Z,28.10
2018-07-25T16:41:37.307Z,28.10
2018-07-25T16:44:05.896Z,28.10
2018-07-25T16:46:34.233Z,28.00
2018-07-25T16:49:02.559Z,28.00
2018-07-25T16:51:30.907Z,27.90
2018-07-25T16:53:59.222Z,27.90
2018-07-25T16:56:27.564Z,27.90
2018-07-25T16:58:55.899Z,27.80
2018-07-25T17:01:24.252Z,27.80
2018-07-25T17:03:52.601Z,27.80
2018-07-25T17:06:20.971Z,27.80
2018-07-25T17:08:49.469Z,27.80
2018-07-25T17:11:17.914Z,27.90
2018-07-25T17:13:46.246Z,27.80
2018-07-25T17:16:14.598Z,27.80
2018-07-25T17:18:42.917Z,27.80
2018-07-25T17:21:11.299Z,27.70
2018-07-25T17:23:39.603Z,27.70
2018-07-25T17:26:07.965Z,27.60
2018-07-25T17:28:36.341Z,27.60
2018-07-25T17:31:04.641Z,27.50
2018-07-25T17:33:32.997Z,27.50
2018-07-25T17:36:01.313Z,27.50
2018-07-25T17:38:29.631Z,27.50
2018-07-25T17:40:58.009Z,27.40
2018-07-25T17:43:26.309Z,27.40
2018-07-25T17:45:54.624Z,27.30
2018-07-25T17:48:23.026Z,27.30
2018-07-25T17:50:51.364Z,27.20
2018-07-25T17:53:19.721Z,27.20
2018-07-25T17:55:48.031Z,27.10
2018-07-25T17:58:16.395Z,27.10
2018-07-25T18:00:44.836Z,27.00
2018-07-25T18:03:13.240Z,27.00
2018-07-25T18:05:41.527Z,27.00
2018-07-25T18:08:09.904Z,26.90
2018-07-25T18:10:38.255Z,26.80
2018-07-25T18:13:11.976Z,26.80
2018-07-25T18:15:40.390Z,26.80
2018-07-25T18:18:08.700Z,26.70
2018-07-25T18:20:37.041Z,26.60
2018-07-25T18:25:33.935Z,26.40
2018-07-25T18:28:02.273Z,26.40
2018-07-25T18:30:30.579Z,26.30
2018-07-25T18:32:58.961Z,26.20
2018-07-25T18:35:27.428Z,26.10
2018-07-25T18:37:55.844Z,26.00
2018-07-25T18:40:24.175Z,25.90
2018-07-25T18:42:52.542Z,25.80
2018-07-25T18:45:20.892Z,25.70
2018-07-25T18:47:49.265Z,25.60
2018-07-25T18:50:17.625Z,25.60
2018-07-25T18:52:45.998Z,25.50
2018-07-25T18:55:14.369Z,25.40
2018-07-25T18:57:42.678Z,25.30
2018-07-25T19:00:11.028Z,25.20
2018-07-25T19:02:39.339Z,25.20
2018-07-25T19:05:07.802Z,25.10
2018-07-25T19:08:39.317Z,25.10
2018-07-25T19:11:07.667Z,25.00
2018-07-25T19:13:36.656Z,25.00
2018-07-25T19:16:06.130Z,24.90
2018-07-25T19:18:34.539Z,24.90
2018-07-25T19:21:02.928Z,24.90
2018-07-25T19:23:31.282Z,24.80
2018-07-25T19:25:59.645Z,24.70
2018-07-25T19:28:28.073Z,24.70
2018-07-25T19:30:56.404Z,24.70
2018-07-25T19:33:24.734Z,24.60
2018-07-25T19:35:53.083Z,24.60
2018-07-25T19:38:21.401Z,24.50
2018-07-25T19:40:49.757Z,24.40
2018-07-25T19:43:18.129Z,24.20
2018-07-25T19:45:46.390Z,24.00
2018-07-25T19:48:14.703Z,23.80
2018-07-25T19:50:43.034Z,23.60
2018-07-25T19:53:11.393Z,23.20
2018-07-25T19:55:39.716Z,22.90
2018-07-25T19:58:08.083Z,22.70
2018-07-25T20:00:37.669Z,22.50
2018-07-25T20:03:06.482Z,22.30
2018-07-25T20:05:34.852Z,22.20
2018-07-25T20:08:03.207Z,22.10
2018-07-25T20:10:31.540Z,21.90
2018-07-25T20:12:59.908Z,21.90
2018-07-25T20:15:33.642Z,21.80
2018-07-25T20:18:01.990Z,21.70
2018-07-25T20:20:30.477Z,21.60
2018-07-25T20:22:58.841Z,21.60
2018-07-25T20:25:27.332Z,21.40
2018-07-25T20:27:55.720Z,21.20
2018-07-25T20:32:52.245Z,20.90
2018-07-25T20:35:20.588Z,20.80
2018-07-25T20:37:48.884Z,20.70
2018-07-25T20:40:17.312Z,20.60
2018-07-25T20:42:45.671Z,20.60
2018-07-25T20:45:14.029Z,20.60
2018-07-25T20:47:42.677Z,20.50
2018-07-25T20:50:11.023Z,20.30
2018-07-25T20:52:39.395Z,20.20
2018-07-25T20:55:07.814Z,20.10
2018-07-25T20:57:36.404Z,19.90
2018-07-25T21:00:05.219Z,19.80
2018-07-25T21:02:33.716Z,19.70
2018-07-25T21:05:02.108Z,19.70
2018-07-25T21:07:30.548Z,19.50
2018-07-25T21:09:59.076Z,19.50
2018-07-25T21:12:27.605Z,19.40
2018-07-25T21:14:55.905Z,19.40
2018-07-25T21:17:24.210Z,19.30
2018-07-25T21:19:52.585Z,19.20
2018-07-25T21:22:21.195Z,19.10
2018-07-25T21:24:49.538Z,19.10
2018-07-25T21:27:17.889Z,19.00
2018-07-25T21:29:46.389Z,18.90
2018-07-25T21:32:14.703Z,18.80
2018-07-25T21:34:43.035Z,18.90
2018-07-25T21:37:11.413Z,18.90
2018-07-25T21:39:39.853Z,18.80
2018-07-25T21:42:08.354Z,18.70
2018-07-25T21:44:36.794Z,18.70
2018-07-25T21:47:05.372Z,18.60
2018-07-25T21:49:33.821Z,18.60
2018-07-25T21:52:02.318Z,18.70
2018-07-25T21:56:58.735Z,18.70
2018-07-25T21:59:27.240Z,18.70
2018-07-25T22:01:55.654Z,18.70
2018-07-25T22:04:24.142Z,18.70
2018-07-25T22:06:53.395Z,18.70
2018-07-25T22:11:50.156Z,18.50
2018-07-25T22:14:18.577Z,18.40
2018-07-25T22:16:46.978Z,18.30
2018-07-25T22:19:15.518Z,18.30
2018-07-25T22:21:43.908Z,18.30
2018-07-25T22:24:12.624Z,18.30
2018-07-25T22:26:40.942Z,18.30
2018-07-25T22:29:09.312Z,18.20
2018-07-25T22:31:37.734Z,18.00
2018-07-25T22:34:06.197Z,18.00
2018-07-25T22:36:34.539Z,17.90
2018-07-25T22:39:03.092Z,17.80
2018-07-25T22:41:31.462Z,17.80
2018-07-25T22:43:59.786Z,17.80
2018-07-25T22:48:56.366Z,17.70
2018-07-25T22:51:24.779Z,17.70
2018-07-25T22:53:53.147Z,17.60
2018-07-25T22:56:21.560Z,17.60
2018-07-25T22:58:49.950Z,17.50
2018-07-25T23:01:18.264Z,17.50
2018-07-25T23:10:32.981Z,17.40
2018-07-25T23:13:01.364Z,17.30
2018-07-25T23:15:29.735Z,17.30
2018-07-25T23:17:58.093Z,17.30
2018-07-25T23:20:26.645Z,17.30
2018-07-25T23:22:58.169Z,17.20
2018-07-25T23:25:26.926Z,17.20
2018-07-25T23:27:56.362Z,17.20
2018-07-25T23:30:25.527Z,17.20
2018-07-25T23:32:53.872Z,17.30
2018-07-25T23:35:22.271Z,17.30
2018-07-25T23:37:51.186Z,17.30
2018-07-25T23:40:19.791Z,17.30
2018-07-25T23:42:48.772Z,17.20
2018-07-25T23:45:17.192Z,17.10
2018-07-25T23:47:45.565Z,17.10
2018-07-25T23:50:13.916Z,17.00
2018-07-25T23:52:42.277Z,17.00
2018-07-25T23:55:10.627Z,16.90
2018-07-25T23:57:39.107Z,16.90
